Time;durP1;ratioP1;P1;durP2;ratioP2;P2;SDS_P1;SDS_P2;PMS_P1;PMS_P2;Temp;Humidity;BMP_temperature;BMP_pressure;BME280_temperature;BME280_humidity;BME280_pressure;Samples;Min_cycle;Max_cycle;Signal;HPM_P1;HPM_P2
2023/09/27 00:00:59;;;;;;;10.88;7.63;;;;;;;24.20;54.17;102607.44;21067495;28;20044;-61
2023/09/27 00:11:02;;;;;;;10.80;7.68;;;;;;;24.18;53.80;102600.41;21074492;28;20340;-61
2023/09/27 00:21:03;;;;;;;10.00;7.88;;;;;;;24.17;53.59;102605.16;21089817;28;20044;-61
2023/09/27 00:31:05;;;;;;;9.18;7.75;;;;;;;24.16;53.66;102609.06;21085162;28;20040;-60
2023/09/27 00:41:06;;;;;;;10.85;7.38;;;;;;;24.17;53.57;102598.72;21054937;28;20051;-64
2023/09/27 00:51:07;;;;;;;10.90;8.52;;;;;;;24.15;53.28;102617.72;21086352;28;20109;-60
2023/09/27 01:01:10;;;;;;;10.38;8.13;;;;;;;24.14;53.44;102614.06;21087546;28;20380;-60
2023/09/27 01:11:12;;;;;;;9.10;7.43;;;;;;;24.12;53.16;102607.06;21085612;28;20544;-60
2023/09/27 01:21:19;;;;;;;9.02;8.10;;;;;;;24.08;53.21;102612.31;21085223;28;20117;-59
2023/09/27 01:31:20;;;;;;;8.75;7.82;;;;;;;24.12;53.67;102621.88;21085030;28;20036;-60
2023/09/27 01:41:21;;;;;;;11.35;8.48;;;;;;;24.09;53.14;102616.81;21084462;28;20440;-60
2023/09/27 01:51:23;;;;;;;10.50;7.85;;;;;;;24.11;52.97;102606.22;21083800;28;20466;-60
2023/09/27 02:01:24;;;;;;;9.35;8.15;;;;;;;24.09;52.99;102622.41;21083154;28;20040;-60
2023/09/27 02:11:25;;;;;;;10.90;7.72;;;;;;;24.08;53.28;102629.94;21081626;28;20040;-60
2023/09/27 02:21:27;;;;;;;8.50;7.57;;;;;;;24.02;53.11;102613.38;21080887;28;20483;-59
2023/09/27 02:31:29;;;;;;;8.93;7.75;;;;;;;24.07;53.15;102617.06;21080460;28;20048;-60
2023/09/27 02:41:31;;;;;;;10.68;8.35;;;;;;;24.08;52.98;102613.16;21077577;28;20476;-60
2023/09/27 02:51:32;;;;;;;9.15;8.00;;;;;;;24.05;52.87;102607.25;21078281;28;20105;-59
2023/09/27 03:01:33;;;;;;;9.00;7.32;;;;;;;24.04;53.09;102609.19;21078253;28;20043;-60
2023/09/27 03:11:36;;;;;;;10.18;8.07;;;;;;;23.99;53.21;102591.53;21078085;28;20089;-60
2023/09/27 03:21:37;;;;;;;9.32;7.93;;;;;;;24.04;53.30;102603.59;21076930;28;20044;-60
2023/09/27 03:31:38;;;;;;;8.73;7.22;;;;;;;24.05;53.05;102599.72;21078089;28;20052;-60
2023/09/27 03:41:40;;;;;;;9.20;7.63;;;;;;;24.01;52.89;102589.34;21081060;28;20097;-61
2023/09/27 03:51:44;;;;;;;9.07;7.82;;;;;;;23.98;52.85;102589.84;21085569;28;20044;-60
2023/09/27 04:01:46;;;;;;;8.05;7.25;;;;;;;24.02;52.83;102580.66;21088326;28;20040;-59
2023/09/27 04:11:47;;;;;;;8.68;7.45;;;;;;;24.01;53.04;102575.34;21088659;28;20093;-60
2023/09/27 04:21:48;;;;;;;8.55;7.00;;;;;;;24.00;52.76;102562.44;21088371;28;20052;-60
2023/09/27 04:31:50;;;;;;;9.38;7.68;;;;;;;24.00;52.77;102571.69;21083375;28;20066;-60
2023/09/27 04:41:51;;;;;;;8.15;6.53;;;;;;;23.99;52.83;102558.81;21080657;28;20399;-58
2023/09/27 04:51:52;;;;;;;8.65;7.55;;;;;;;24.00;52.84;102582.03;21081991;28;20036;-59
2023/09/27 05:01:56;;;;;;;8.82;7.40;;;;;;;23.96;52.65;102590.13;21075746;28;20048;-60
2023/09/27 05:11:58;;;;;;;8.38;7.13;;;;;;;23.96;52.91;102587.31;21082869;28;20065;-60
2023/09/27 05:22:02;;;;;;;10.70;7.45;;;;;;;23.95;52.92;102587.56;21064109;28;20089;-60
2023/09/27 05:32:04;;;;;;;9.02;7.65;;;;;;;23.94;52.95;102592.31;21077072;28;20190;-60
2023/09/27 05:42:05;;;;;;;8.40;6.93;;;;;;;23.94;52.66;102583.09;21083816;28;20110;-59
2023/09/27 05:52:11;;;;;;;9.02;7.65;;;;;;;23.94;52.93;102583.09;21083318;28;20399;-60
2023/09/27 06:02:16;;;;;;;7.82;7.03;;;;;;;23.93;52.77;102571.06;21081921;28;20040;-59
2023/09/27 06:12:17;;;;;;;7.90;7.10;;;;;;;23.93;52.81;102575.81;21082174;28;20467;-59
2023/09/27 06:22:22;;;;;;;9.15;7.53;;;;;;;23.92;52.84;102565.75;21080447;28;20101;-60
2023/09/27 06:32:24;;;;;;;8.85;6.75;;;;;;;23.92;52.96;102558.19;21080380;28;20032;-60
2023/09/27 06:42:25;;;;;;;8.05;6.82;;;;;;;23.92;52.98;102551.75;21078274;28;20048;-60
2023/09/27 06:52:29;;;;;;;8.30;7.32;;;;;;;23.89;52.88;102536.34;21079541;28;20489;-60
2023/09/27 07:02:30;;;;;;;9.07;7.38;;;;;;;23.90;52.73;102535.22;21078562;28;20044;-59
2023/09/27 07:12:31;;;;;;;8.10;6.85;;;;;;;23.91;52.74;102541.66;21077939;28;20029;-60
2023/09/27 07:22:33;;;;;;;8.15;7.15;;;;;;;23.90;52.67;102520.41;21076072;28;20052;-59
2023/09/27 07:32:34;;;;;;;9.48;7.35;;;;;;;23.89;52.90;102518.72;21076873;28;20028;-59
2023/09/27 07:42:37;;;;;;;7.35;6.57;;;;;;;23.79;52.91;102492.34;21075933;28;20103;-59
2023/09/27 07:52:38;;;;;;;8.30;7.28;;;;;;;23.87;52.78;102492.97;21075615;28;20028;-59
2023/09/27 08:02:39;;;;;;;7.93;7.13;;;;;;;23.87;52.85;102487.38;21074573;28;20047;-59
2023/09/27 08:12:42;;;;;;;8.38;7.25;;;;;;;23.86;52.79;102486.53;21073079;28;20044;-59
2023/09/27 08:22:44;;;;;;;8.10;7.18;;;;;;;23.68;52.74;102454.19;21064516;28;20476;-60
2023/09/27 08:32:46;;;;;;;8.20;7.13;;;;;;;23.81;52.73;102487.31;21085935;28;20445;-60
2023/09/27 08:42:50;;;;;;;7.93;6.68;;;;;;;23.82;52.70;102480.66;21084836;28;20485;-59
2023/09/27 08:52:52;;;;;;;8.75;6.57;;;;;;;23.82;53.00;102480.66;21083965;28;20062;-59
2023/09/27 09:02:57;;;;;;;7.68;6.82;;;;;;;23.82;52.42;102468.59;21084901;28;20105;-59
2023/09/27 09:13:03;;;;;;;7.53;6.68;;;;;;;23.78;52.60;102468.31;21083675;28;20055;-60
2023/09/27 09:23:12;;;;;;;7.72;6.50;;;;;;;23.79;52.45;102469.16;21082390;28;20052;-60
2023/09/27 09:33:28;;;;;;;6.47;5.85;;;;;;;23.77;52.68;102479.72;21081526;28;20109;-60
2023/09/27 09:43:34;;;;;;;6.97;6.27;;;;;;;23.80;52.66;102496.81;21081035;28;20174;-59
2023/09/27 09:53:42;;;;;;;6.60;5.90;;;;;;;23.79;52.43;102497.09;21079158;28;20105;-58
2023/09/27 10:03:47;;;;;;;6.55;5.78;;;;;;;23.78;52.47;102510.25;21082434;28;20097;-59
2023/09/27 10:13:50;;;;;;;7.03;5.97;;;;;;;23.78;52.59;102523.38;21081688;28;20391;-59
2023/09/27 10:23:55;;;;;;;6.22;5.47;;;;;;;23.78;52.57;102523.38;21080955;28;20133;-59
2023/09/27 10:33:57;;;;;;;7.00;5.97;;;;;;;23.63;52.53;102492.41;21079594;28;20453;-59
2023/09/27 10:43:59;;;;;;;8.07;6.75;;;;;;;23.76;52.30;102539.53;21077402;28;20383;-59
2023/09/27 10:54:06;;;;;;;7.45;6.18;;;;;;;23.75;52.53;102540.66;21071157;28;20039;-60
2023/09/27 11:04:12;;;;;;;6.73;5.57;;;;;;;23.74;52.41;102531.44;21076203;28;20040;-60
2023/09/27 11:14:24;;;;;;;6.63;5.68;;;;;;;23.74;52.25;102551.00;21069698;28;20036;-60
2023/09/27 11:24:37;;;;;;;6.30;5.65;;;;;;;23.70;52.46;102566.59;21048551;28;20078;-60
2023/09/27 11:34:38;;;;;;;7.13;5.80;;;;;;;23.73;52.20;102566.09;21052699;28;20052;-59
2023/09/27 11:44:40;;;;;;;6.22;5.28;;;;;;;23.72;52.20;102586.72;21072211;28;20048;-59
2023/09/27 11:54:45;;;;;;;6.68;5.70;;;;;;;23.71;52.16;102585.06;21066035;28;20040;-60
2023/09/27 12:04:47;;;;;;;6.57;5.88;;;;;;;23.70;52.19;102583.38;21083298;28;20411;-60
2023/09/27 12:14:49;;;;;;;6.05;5.15;;;;;;;23.69;52.38;102576.09;21085367;28;20063;-59
2023/09/27 12:24:51;;;;;;;5.90;5.25;;;;;;;23.70;52.31;102565.75;21079768;28;20568;-61
2023/09/27 12:34:52;;;;;;;8.20;5.93;;;;;;;23.56;52.42;102565.28;21087816;28;20044;-59
2023/09/27 12:44:54;;;;;;;8.60;5.78;;;;;;;23.70;52.93;102574.97;21088267;28;20445;-60
2023/09/27 12:54:55;;;;;;;15.15;6.57;;;;;;;23.71;53.60;102582.25;21088125;28;20062;-60
2023/09/27 13:04:58;;;;;;;8.23;6.22;;;;;;;23.73;53.83;102582.84;21087994;28;20483;-59
2023/09/27 13:15:03;;;;;;;9.07;5.88;;;;;;;23.73;53.81;102588.44;21080125;28;20024;-59
2023/09/27 13:25:05;;;;;;;12.32;6.32;;;;;;;23.73;53.57;102588.44;21083899;28;20043;-59
2023/09/27 13:35:07;;;;;;;7.68;5.38;;;;;;;23.74;53.88;102594.88;21083896;28;20048;-59
2023/09/27 13:45:17;;;;;;;11.60;6.05;;;;;;;23.71;53.85;102596.22;21068656;28;20044;-59
2023/09/27 13:55:18;;;;;;;10.63;5.53;;;;;;;23.72;54.19;102597.91;21068116;28;20040;-59
2023/09/27 14:05:19;;;;;;;9.60;5.82;;;;;;;23.76;54.22;102603.84;21054592;28;20028;-58
2023/09/27 14:15:21;;;;;;;12.23;5.97;;;;;;;23.74;54.48;102598.50;21011947;28;20048;-60
2023/09/27 14:25:22;;;;;;;8.25;5.10;;;;;;;23.76;54.44;102601.88;21080302;28;20044;-60
2023/09/27 14:35:24;;;;;;;9.45;5.20;;;;;;;23.76;54.38;102610.25;21035925;28;20066;-59
2023/09/27 14:45:31;;;;;;;8.23;5.13;;;;;;;23.76;54.20;102610.25;20996056;28;20044;-59
2023/09/27 14:55:32;;;;;;;11.83;5.33;;;;;;;23.78;54.31;102607.22;21049761;28;20078;-59
2023/09/27 15:05:34;;;;;;;9.20;4.88;;;;;;;23.79;54.16;102620.94;21044904;28;20986;-58
2023/09/27 15:15:35;;;;;;;7.70;5.25;;;;;;;23.79;54.09;102615.34;21071491;28;20399;-59
2023/09/27 15:25:40;;;;;;;7.55;4.80;;;;;;;23.78;54.02;102618.41;21067697;28;20048;-60
2023/09/27 15:35:51;;;;;;;7.90;4.50;;;;;;;23.79;54.10;102609.75;21075855;28;20048;-60
2023/09/27 15:46:02;;;;;;;11.43;4.97;;;;;;;23.71;53.52;102590.63;21075176;28;20040;-60
2023/09/27 15:56:06;;;;;;;10.20;5.25;;;;;;;23.83;53.76;102605.34;21075787;28;20032;-60
2023/09/27 16:06:09;;;;;;;8.77;4.65;;;;;;;23.84;53.56;102601.44;21075698;28;20464;-60
2023/09/27 16:16:10;;;;;;;8.65;4.70;;;;;;;23.87;53.60;102590.81;21075576;28;20040;-60
2023/09/27 16:26:12;;;;;;;7.38;4.68;;;;;;;23.87;53.51;102582.44;21074768;28;20093;-59
2023/09/27 16:36:19;;;;;;;6.75;4.20;;;;;;;23.87;53.32;102555.34;21074663;28;20040;-58
2023/09/27 16:46:21;;;;;;;6.63;4.87;;;;;;;23.87;53.23;102543.28;21075051;28;20441;-61
2023/09/27 16:56:22;;;;;;;5.80;4.45;;;;;;;23.92;52.91;102529.41;21088869;28;20032;-59
2023/09/27 17:06:23;;;;;;;5.40;4.38;;;;;;;23.93;52.96;102508.72;21087456;28;20043;-58
2023/09/27 17:16:26;;;;;;;5.57;4.45;;;;;;;23.96;52.64;102491.38;21086382;28;20024;-59
2023/09/27 17:26:28;;;;;;;6.05;4.22;;;;;;;23.98;52.53;102472.41;21086316;28;20044;-60
2023/09/27 17:36:29;;;;;;;6.20;4.47;;;;;;;23.97;52.47;102453.94;21084946;28;20043;-61
2023/09/27 17:46:31;;;;;;;5.43;4.43;;;;;;;24.00;52.74;102437.47;21084429;28;20548;-59
2023/09/27 17:56:33;;;;;;;6.68;4.15;;;;;;;24.05;52.57;102417.09;21083006;28;20036;-60
2023/09/27 18:06:34;;;;;;;6.85;4.57;;;;;;;24.06;52.49;102408.44;21082358;28;20047;-60
2023/09/27 18:16:50;;;;;;;6.88;4.32;;;;;;;24.03;52.33;102385.75;21081694;28;20036;-59
2023/09/27 18:26:52;;;;;;;5.85;4.15;;;;;;;24.11;52.27;102382.47;21080441;28;20039;-58
2023/09/27 18:36:53;;;;;;;6.00;4.85;;;;;;;24.13;52.27;102373.81;21080061;28;20039;-59
2023/09/27 18:46:54;;;;;;;5.60;4.07;;;;;;;24.15;52.20;102361.25;21079757;28;20036;-59
2023/09/27 18:56:56;;;;;;;4.95;4.00;;;;;;;24.16;52.02;102365.72;21078530;28;20483;-59
2023/09/27 19:06:57;;;;;;;5.65;4.18;;;;;;;24.14;51.97;102365.13;21077883;28;20036;-60
2023/09/27 19:16:59;;;;;;;5.30;3.70;;;;;;;24.20;51.83;102355.69;21076902;28;20539;-60
2023/09/27 19:27:00;;;;;;;5.47;4.35;;;;;;;24.21;51.73;102348.97;21079517;28;20643;-59
2023/09/27 19:37:01;;;;;;;4.53;3.55;;;;;;;24.22;51.81;102333.88;21076268;28;20414;-60
2023/09/27 19:47:04;;;;;;;5.15;4.13;;;;;;;24.21;51.88;102348.16;21075897;28;20044;-61
2023/09/27 19:57:05;;;;;;;5.93;4.32;;;;;;;24.25;51.73;102350.13;21074882;28;20040;-59
2023/09/27 20:07:06;;;;;;;5.93;4.35;;;;;;;24.24;51.76;102333.63;21075197;28;20043;-59
2023/09/27 20:17:08;;;;;;;4.38;3.85;;;;;;;24.25;51.53;102326.91;21075267;28;20040;-61
2023/09/27 20:27:12;;;;;;;5.30;3.95;;;;;;;24.26;51.54;102332.22;21085696;28;20066;-60
2023/09/27 20:37:14;;;;;;;5.22;4.07;;;;;;;24.22;51.35;102322.69;21089583;28;20069;-60
2023/09/27 20:47:21;;;;;;;4.88;4.30;;;;;;;24.26;51.17;102320.19;21089294;28;20048;-61
2023/09/27 20:57:28;;;;;;;5.57;4.47;;;;;;;24.11;51.21;102292.16;21088102;28;20438;-61
2023/09/27 21:07:29;;;;;;;6.17;3.83;;;;;;;24.24;50.88;102303.69;21087051;28;20109;-61
2023/09/27 21:17:31;;;;;;;6.15;3.90;;;;;;;24.26;50.75;102312.66;21086231;28;20036;-59
2023/09/27 21:27:33;;;;;;;6.22;4.30;;;;;;;24.25;50.74;102313.75;21084965;28;20044;-60
2023/09/27 21:37:34;;;;;;;7.93;4.68;;;;;;;24.25;50.45;102332.50;21083464;28;20074;-61
2023/09/27 21:47:39;;;;;;;6.35;4.32;;;;;;;24.23;50.49;102329.97;21083540;28;20043;-60
2023/09/27 21:57:40;;;;;;;5.45;4.22;;;;;;;24.23;50.35;102341.16;21081776;28;20029;-59
2023/09/27 22:07:45;;;;;;;5.53;4.43;;;;;;;24.23;50.30;102346.75;21082147;28;20048;-59
2023/09/27 22:17:49;;;;;;;5.05;4.15;;;;;;;24.22;50.33;102355.41;21081590;28;20040;-60
2023/09/27 22:27:51;;;;;;;6.53;4.57;;;;;;;24.19;50.29;102362.41;21076588;28;20514;-60
2023/09/27 22:38:00;;;;;;;5.85;4.00;;;;;;;24.19;50.46;102356.81;21037571;28;20098;-59
2023/09/27 22:48:05;;;;;;;4.97;3.88;;;;;;;24.15;50.43;102350.06;21039439;28;20048;-60
2023/09/27 22:58:08;;;;;;;5.30;4.65;;;;;;;24.18;50.54;102371.88;21066022;28;20101;-60
2023/09/27 23:08:25;;;;;;;7.53;4.82;;;;;;;24.14;50.48;102387.50;21041375;28;20063;-59
2023/09/27 23:18:30;;;;;;;7.22;4.90;;;;;;;24.15;50.57;102394.81;21006513;28;20051;-63
2023/09/27 23:38:57;;;;;;;5.63;4.47;;;;;;;24.16;50.53;102392.84;21030922;28;20028;-59
2023/09/27 23:49:01;;;;;;;5.25;4.25;;;;;;;24.14;50.60;102403.47;21070994;28;20044;-61
2023/09/27 23:59:07;;;;;;;6.13;5.10;;;;;;;24.11;50.71;102421.63;21081171;28;20090;-60
